aviador You're here:

SARL Decoded Metar

PASO DE LOS LIBRES in ARGENTINA
Report Time2018-05-20 19:00:00
UTC Time2018-05-20 19:39:54
Flight Rules vfr VFR
Wind180° at 03 kt
W.Decomp.*RWY 18: 2.9 kt HW 0.6 kt RCW
W.Rank180° ranks 2
Current wind is below 180° avg. (10.3)
Visibility9999 m
Phenomena:N/A
Clouds:Scattered 016 Hf
Scattered 200 Hf
Expected CloudBase > 2,800 ft AGL from Temp-Dew spread
CeilingNone
Temp17°C (ISA +2)
Dew Point10°C (64% RH)
AAT16.0°C
QNH1017 hPa
Density Alt551 ft
Elevation230 ft
Report Wrong Elevation
Raw Report
METAR SARL 201900Z 18003KT 9999 SCT016 SCT200 17/10 Q1017=

Extra information for SARL:More info

Metar Taf Metar & Taf Last 4 Metars F.Rules Stats Wind Profile Meteogram Temp Stats Airport Information Weather charts Add Link Nearby VenuesMetar ALERT Operation Metar Decoded Social comments